sensor_id;sensor_type;location;lat;lon;timestamp;pressure;altitude;pressure_sealevel;temperature;humidity
31225;BME280;17847;31.524;74.366;2023-08-30T00:00:16;97963.34;;;27.16;nan
31225;BME280;17847;31.524;74.366;2023-08-30T00:02:46;97960.78;;;27.19;nan
31225;BME280;17847;31.524;74.366;2023-08-30T00:05:15;97967.84;;;27.29;nan
31225;BME280;17847;31.524;74.366;2023-08-30T00:07:44;97968.28;;;27.14;nan
31225;BME280;17847;31.524;74.366;2023-08-30T00:10:17;97979.66;;;27.16;nan
31225;BME280;17847;31.524;74.366;2023-08-30T00:12:46;97979.31;;;27.17;nan
31225;BME280;17847;31.524;74.366;2023-08-30T00:15:16;97977.59;;;27.13;nan
31225;BME280;17847;31.524;74.366;2023-08-30T00:17:45;97983.19;;;27.16;nan
31225;BME280;17847;31.524;74.366;2023-08-30T00:20:14;97983.03;;;27.21;nan
31225;BME280;17847;31.524;74.366;2023-08-30T00:22:44;97982.38;;;27.16;nan
31225;BME280;17847;31.524;74.366;2023-08-30T00:25:13;97992.75;;;27.14;nan
31225;BME280;17847;31.524;74.366;2023-08-30T00:27:45;97985.38;;;27.06;nan
31225;BME280;17847;31.524;74.366;2023-08-30T00:30:14;97993.38;;;27.02;nan
31225;BME280;17847;31.524;74.366;2023-08-30T00:32:44;97995.47;;;27.05;nan
31225;BME280;17847;31.524;74.366;2023-08-30T00:35:13;98003.63;;;27.05;nan
31225;BME280;17847;31.524;74.366;2023-08-30T00:37:43;97999.50;;;27.16;nan
31225;BME280;17847;31.524;74.366;2023-08-30T00:40:12;98006.50;;;27.09;nan
31225;BME280;17847;31.524;74.366;2023-08-30T00:42:42;98008.25;;;27.05;nan
31225;BME280;17847;31.524;74.366;2023-08-30T00:45:11;98001.03;;;27.00;nan
31225;BME280;17847;31.524;74.366;2023-08-30T00:47:40;98011.09;;;27.00;nan
31225;BME280;17847;31.524;74.366;2023-08-30T00:50:10;98012.25;;;26.99;nan
31225;BME280;17847;31.524;74.366;2023-08-30T00:52:40;98015.28;;;27.06;nan
31225;BME280;17847;31.524;74.366;2023-08-30T00:55:10;98012.72;;;27.09;nan
31225;BME280;17847;31.524;74.366;2023-08-30T00:57:40;98011.63;;;27.10;nan
31225;BME280;17847;31.524;74.366;2023-08-30T01:00:09;98019.13;;;27.05;nan
31225;BME280;17847;31.524;74.366;2023-08-30T01:02:40;98018.38;;;27.13;nan
31225;BME280;17847;31.524;74.366;2023-08-30T01:05:10;98027.28;;;27.05;nan
31225;BME280;17847;31.524;74.366;2023-08-30T01:07:40;98022.34;;;27.07;nan
31225;BME280;17847;31.524;74.366;2023-08-30T01:10:09;98028.25;;;27.09;nan
31225;BME280;17847;31.524;74.366;2023-08-30T01:12:49;98024.41;;;27.10;nan
31225;BME280;17847;31.524;74.366;2023-08-30T01:15:23;98035.66;;;27.17;nan
31225;BME280;17847;31.524;74.366;2023-08-30T01:17:55;98036.59;;;27.21;nan
31225;BME280;17847;31.524;74.366;2023-08-30T01:20:26;98036.47;;;27.26;nan
31225;BME280;17847;31.524;74.366;2023-08-30T01:25:39;98039.66;;;27.37;nan
31225;BME280;17847;31.524;74.366;2023-08-30T01:28:12;98043.84;;;27.43;nan
31225;BME280;17847;31.524;74.366;2023-08-30T01:30:45;98048.34;;;27.47;nan
31225;BME280;17847;31.524;74.366;2023-08-30T01:33:15;98053.66;;;27.52;nan
31225;BME280;17847;31.524;74.366;2023-08-30T01:35:46;98045.00;;;27.59;nan
31225;BME280;17847;31.524;74.366;2023-08-30T01:38:16;98044.34;;;27.62;nan
31225;BME280;17847;31.524;74.366;2023-08-30T01:40:46;98050.13;;;27.69;nan
31225;BME280;17847;31.524;74.366;2023-08-30T01:43:16;98045.34;;;27.75;nan
31225;BME280;17847;31.524;74.366;2023-08-30T01:45:47;98043.72;;;27.82;nan
31225;BME280;17847;31.524;74.366;2023-08-30T01:48:17;98050.13;;;27.86;nan
31225;BME280;17847;31.524;74.366;2023-08-30T01:50:49;98051.41;;;27.97;nan
31225;BME280;17847;31.524;74.366;2023-08-30T01:53:19;98052.69;;;28.08;nan
31225;BME280;17847;31.524;74.366;2023-08-30T01:55:50;98062.47;;;28.18;nan
31225;BME280;17847;31.524;74.366;2023-08-30T01:58:19;98062.47;;;28.27;nan
31225;BME280;17847;31.524;74.366;2023-08-30T02:00:49;98062.44;;;28.35;nan
31225;BME280;17847;31.524;74.366;2023-08-30T02:03:18;98067.88;;;28.44;nan
31225;BME280;17847;31.524;74.366;2023-08-30T02:05:58;98068.81;;;28.48;nan
31225;BME280;17847;31.524;74.366;2023-08-30T02:08:44;98062.69;;;28.59;nan
31225;BME280;17847;31.524;74.366;2023-08-30T02:11:25;98069.88;;;28.73;nan
31225;BME280;17847;31.524;74.366;2023-08-30T02:13:58;98068.56;;;28.87;nan
31225;BME280;17847;31.524;74.366;2023-08-30T02:16:28;98058.91;;;28.98;nan
31225;BME280;17847;31.524;74.366;2023-08-30T02:18:59;98070.16;;;29.18;nan
31225;BME280;17847;31.524;74.366;2023-08-30T02:21:29;98071.28;;;29.55;nan
31225;BME280;17847;31.524;74.366;2023-08-30T02:23:58;98072.50;;;29.86;nan
31225;BME280;17847;31.524;74.366;2023-08-30T02:26:30;98074.09;;;30.08;nan
31225;BME280;17847;31.524;74.366;2023-08-30T02:29:00;98073.00;;;30.21;nan
31225;BME280;17847;31.524;74.366;2023-08-30T02:31:29;98076.25;;;30.36;nan
31225;BME280;17847;31.524;74.366;2023-08-30T02:33:58;98073.75;;;30.43;nan
31225;BME280;17847;31.524;74.366;2023-08-30T02:36:27;98070.97;;;30.51;nan
31225;BME280;17847;31.524;74.366;2023-08-30T02:38:57;98078.63;;;30.70;nan
31225;BME280;17847;31.524;74.366;2023-08-30T02:41:26;98075.91;;;30.70;nan
31225;BME280;17847;31.524;74.366;2023-08-30T02:43:55;98071.34;;;30.86;nan
31225;BME280;17847;31.524;74.366;2023-08-30T02:46:24;98078.38;;;30.63;nan
31225;BME280;17847;31.524;74.366;2023-08-30T02:48:54;98082.09;;;30.46;nan
31225;BME280;17847;31.524;74.366;2023-08-30T02:51:23;98088.56;;;30.42;nan
31225;BME280;17847;31.524;74.366;2023-08-30T02:53:53;98083.13;;;30.54;nan
31225;BME280;17847;31.524;74.366;2023-08-30T02:56:22;98080.78;;;30.64;nan
31225;BME280;17847;31.524;74.366;2023-08-30T02:58:51;98083.41;;;30.61;nan
31225;BME280;17847;31.524;74.366;2023-08-30T03:01:21;98088.66;;;30.66;nan
31225;BME280;17847;31.524;74.366;2023-08-30T03:03:50;98090.56;;;30.53;nan
31225;BME280;17847;31.524;74.366;2023-08-30T03:06:19;98096.75;;;30.62;nan
31225;BME280;17847;31.524;74.366;2023-08-30T03:08:49;98095.69;;;30.55;nan
31225;BME280;17847;31.524;74.366;2023-08-30T03:11:18;98104.16;;;30.62;nan
31225;BME280;17847;31.524;74.366;2023-08-30T03:13:50;98102.13;;;30.71;nan
31225;BME280;17847;31.524;74.366;2023-08-30T03:16:20;98102.03;;;30.80;nan
31225;BME280;17847;31.524;74.366;2023-08-30T03:18:50;98108.19;;;30.89;nan
31225;BME280;17847;31.524;74.366;2023-08-30T03:21:23;98114.00;;;30.87;nan
31225;BME280;17847;31.524;74.366;2023-08-30T03:23:52;98118.38;;;31.00;nan
31225;BME280;17847;31.524;74.366;2023-08-30T03:26:21;98117.31;;;30.93;nan
31225;BME280;17847;31.524;74.366;2023-08-30T03:28:50;98124.72;;;30.92;nan
31225;BME280;17847;31.524;74.366;2023-08-30T03:31:21;98123.16;;;31.03;nan
31225;BME280;17847;31.524;74.366;2023-08-30T03:33:51;98122.72;;;31.01;nan
31225;BME280;17847;31.524;74.366;2023-08-30T03:36:21;98131.22;;;31.00;nan
31225;BME280;17847;31.524;74.366;2023-08-30T03:38:52;98130.28;;;30.96;nan
31225;BME280;17847;31.524;74.366;2023-08-30T03:41:22;98130.91;;;31.01;nan
31225;BME280;17847;31.524;74.366;2023-08-30T03:43:52;98131.34;;;31.03;nan
31225;BME280;17847;31.524;74.366;2023-08-30T03:46:21;98141.16;;;31.16;nan
31225;BME280;17847;31.524;74.366;2023-08-30T03:48:51;98139.00;;;31.22;nan
31225;BME280;17847;31.524;74.366;2023-08-30T03:51:21;98138.69;;;31.24;nan
31225;BME280;17847;31.524;74.366;2023-08-30T03:53:50;98144.72;;;31.29;nan
31225;BME280;17847;31.524;74.366;2023-08-30T03:56:20;98148.94;;;31.39;nan
31225;BME280;17847;31.524;74.366;2023-08-30T03:58:52;98143.25;;;31.44;nan
31225;BME280;17847;31.524;74.366;2023-08-30T04:01:24;98149.84;;;31.43;nan
31225;BME280;17847;31.524;74.366;2023-08-30T04:03:53;98150.75;;;31.47;nan
31225;BME280;17847;31.524;74.366;2023-08-30T04:06:23;98149.19;;;31.46;nan
31225;BME280;17847;31.524;74.366;2023-08-30T04:08:52;98152.84;;;31.50;nan
31225;BME280;17847;31.524;74.366;2023-08-30T04:11:21;98153.28;;;31.52;nan
31225;BME280;17847;31.524;74.366;2023-08-30T04:13:51;98157.09;;;31.59;nan
31225;BME280;17847;31.524;74.366;2023-08-30T04:16:21;98160.13;;;31.70;nan
31225;BME280;17847;31.524;74.366;2023-08-30T04:18:50;98151.25;;;31.73;nan
31225;BME280;17847;31.524;74.366;2023-08-30T04:21:19;98156.25;;;31.71;nan
31225;BME280;17847;31.524;74.366;2023-08-30T04:23:49;98155.47;;;31.71;nan
31225;BME280;17847;31.524;74.366;2023-08-30T04:26:22;98159.44;;;31.85;nan
31225;BME280;17847;31.524;74.366;2023-08-30T04:28:52;98159.78;;;31.84;nan
31225;BME280;17847;31.524;74.366;2023-08-30T04:31:21;98150.06;;;31.98;nan
31225;BME280;17847;31.524;74.366;2023-08-30T04:33:50;98163.84;;;32.14;nan
31225;BME280;17847;31.524;74.366;2023-08-30T04:36:22;98156.00;;;32.13;nan
31225;BME280;17847;31.524;74.366;2023-08-30T04:38:51;98161.69;;;32.20;nan
31225;BME280;17847;31.524;74.366;2023-08-30T04:41:29;98157.91;;;32.52;nan
31225;BME280;17847;31.524;74.366;2023-08-30T04:43:59;98156.47;;;32.70;nan
31225;BME280;17847;31.524;74.366;2023-08-30T04:46:29;98155.97;;;32.96;nan
31225;BME280;17847;31.524;74.366;2023-08-30T04:49:02;98151.78;;;33.14;nan
31225;BME280;17847;31.524;74.366;2023-08-30T04:51:33;98155.34;;;33.65;nan
31225;BME280;17847;31.524;74.366;2023-08-30T04:54:02;98154.59;;;34.00;nan
31225;BME280;17847;31.524;74.366;2023-08-30T04:56:33;98155.56;;;34.07;nan
31225;BME280;17847;31.524;74.366;2023-08-30T04:59:03;98161.59;;;34.32;nan
31225;BME280;17847;31.524;74.366;2023-08-30T05:01:33;98168.19;;;34.47;nan
31225;BME280;17847;31.524;74.366;2023-08-30T05:04:02;98161.00;;;34.61;nan
31225;BME280;17847;31.524;74.366;2023-08-30T05:06:34;98163.06;;;35.29;nan
31225;BME280;17847;31.524;74.366;2023-08-30T05:09:03;98171.56;;;35.43;nan
31225;BME280;17847;31.524;74.366;2023-08-30T05:11:33;98177.09;;;35.43;nan
31225;BME280;17847;31.524;74.366;2023-08-30T05:14:02;98172.25;;;35.14;nan
31225;BME280;17847;31.524;74.366;2023-08-30T05:16:32;98170.03;;;35.00;nan
31225;BME280;17847;31.524;74.366;2023-08-30T05:19:02;98169.28;;;35.03;nan
31225;BME280;17847;31.524;74.366;2023-08-30T05:21:31;98169.16;;;35.91;nan
31225;BME280;17847;31.524;74.366;2023-08-30T05:24:03;98182.84;;;36.40;nan
31225;BME280;17847;31.524;74.366;2023-08-30T05:26:34;98180.94;;;35.88;nan
31225;BME280;17847;31.524;74.366;2023-08-30T05:29:04;98175.72;;;35.56;nan
31225;BME280;17847;31.524;74.366;2023-08-30T05:31:33;98173.53;;;35.66;nan
31225;BME280;17847;31.524;74.366;2023-08-30T05:34:22;98188.94;;;36.23;nan
31225;BME280;17847;31.524;74.366;2023-08-30T05:36:55;98176.50;;;36.66;nan
31225;BME280;17847;31.524;74.366;2023-08-30T05:39:44;98180.53;;;36.75;nan
31225;BME280;17847;31.524;74.366;2023-08-30T05:42:14;98179.59;;;36.61;nan
31225;BME280;17847;31.524;74.366;2023-08-30T05:44:43;98184.53;;;36.78;nan
31225;BME280;17847;31.524;74.366;2023-08-30T05:47:12;98180.91;;;36.74;nan
31225;BME280;17847;31.524;74.366;2023-08-30T05:49:44;98184.13;;;37.13;nan
31225;BME280;17847;31.524;74.366;2023-08-30T05:52:15;98182.25;;;37.24;nan
31225;BME280;17847;31.524;74.366;2023-08-30T05:54:48;98185.53;;;37.40;nan
31225;BME280;17847;31.524;74.366;2023-08-30T05:57:18;98180.06;;;37.03;nan
31225;BME280;17847;31.524;74.366;2023-08-30T05:59:50;98184.31;;;36.97;nan
31225;BME280;17847;31.524;74.366;2023-08-30T06:02:20;98169.38;;;36.65;nan
31225;BME280;17847;31.524;74.366;2023-08-30T06:04:49;98170.34;;;36.79;nan
31225;BME280;17847;31.524;74.366;2023-08-30T06:07:18;98163.75;;;36.24;nan
31225;BME280;17847;31.524;74.366;2023-08-30T06:09:48;98173.44;;;36.74;nan
31225;BME280;17847;31.524;74.366;2023-08-30T06:12:18;98165.94;;;36.41;nan
31225;BME280;17847;31.524;74.366;2023-08-30T06:14:47;98154.94;;;36.45;nan
31225;BME280;17847;31.524;74.366;2023-08-30T06:17:21;98155.69;;;36.42;nan
31225;BME280;17847;31.524;74.366;2023-08-30T06:19:52;98160.31;;;36.64;nan
31225;BME280;17847;31.524;74.366;2023-08-30T06:22:22;98150.22;;;36.79;nan
31225;BME280;17847;31.524;74.366;2023-08-30T06:24:51;98155.06;;;36.56;nan
31225;BME280;17847;31.524;74.366;2023-08-30T06:27:22;98151.06;;;36.50;nan
31225;BME280;17847;31.524;74.366;2023-08-30T06:29:52;98157.59;;;36.68;nan
31225;BME280;17847;31.524;74.366;2023-08-30T06:32:23;98149.34;;;36.38;nan
31225;BME280;17847;31.524;74.366;2023-08-30T06:35:06;98152.28;;;36.22;nan
31225;BME280;17847;31.524;74.366;2023-08-30T06:37:35;98147.50;;;36.16;nan
31225;BME280;17847;31.524;74.366;2023-08-30T06:40:05;98137.22;;;36.16;nan
31225;BME280;17847;31.524;74.366;2023-08-30T06:42:34;98149.44;;;36.45;nan
31225;BME280;17847;31.524;74.366;2023-08-30T06:45:04;98139.97;;;36.46;nan
31225;BME280;17847;31.524;74.366;2023-08-30T06:47:33;98138.84;;;36.17;nan
31225;BME280;17847;31.524;74.366;2023-08-30T06:50:03;98138.47;;;36.19;nan
31225;BME280;17847;31.524;74.366;2023-08-30T06:52:32;98134.00;;;36.11;nan
31225;BME280;17847;31.524;74.366;2023-08-30T06:55:02;98131.72;;;36.16;nan
31225;BME280;17847;31.524;74.366;2023-08-30T06:57:31;98138.34;;;36.12;nan
31225;BME280;17847;31.524;74.366;2023-08-30T07:00:00;98131.56;;;36.06;nan
31225;BME280;17847;31.524;74.366;2023-08-30T07:02:37;98126.81;;;36.02;nan
31225;BME280;17847;31.524;74.366;2023-08-30T07:05:07;98123.84;;;35.62;nan
31225;BME280;17847;31.524;74.366;2023-08-30T07:07:36;98125.50;;;35.93;nan
31225;BME280;17847;31.524;74.366;2023-08-30T07:10:06;98121.75;;;35.78;nan
31225;BME280;17847;31.524;74.366;2023-08-30T07:12:36;98125.19;;;35.98;nan
31225;BME280;17847;31.524;74.366;2023-08-30T07:15:05;98120.44;;;35.98;nan
31225;BME280;17847;31.524;74.366;2023-08-30T07:17:35;98119.75;;;36.05;nan
31225;BME280;17847;31.524;74.366;2023-08-30T07:20:18;98113.13;;;35.80;nan
31225;BME280;17847;31.524;74.366;2023-08-30T07:22:48;98113.84;;;35.77;nan
31225;BME280;17847;31.524;74.366;2023-08-30T07:25:17;98108.63;;;35.45;nan
31225;BME280;17847;31.524;74.366;2023-08-30T07:27:47;98102.09;;;35.80;nan
31225;BME280;17847;31.524;74.366;2023-08-30T07:30:16;98107.03;;;35.97;nan
31225;BME280;17847;31.524;74.366;2023-08-30T07:32:46;98107.03;;;35.97;nan
31225;BME280;17847;31.524;74.366;2023-08-30T07:35:18;98102.00;;;35.76;nan
31225;BME280;17847;31.524;74.366;2023-08-30T07:37:48;98103.13;;;35.98;nan
31225;BME280;17847;31.524;74.366;2023-08-30T07:40:17;98099.25;;;35.76;nan
31225;BME280;17847;31.524;74.366;2023-08-30T07:42:47;98097.81;;;35.86;nan
31225;BME280;17847;31.524;74.366;2023-08-30T07:45:16;98101.00;;;35.88;nan
31225;BME280;17847;31.524;74.366;2023-08-30T07:47:45;98093.34;;;35.74;nan
31225;BME280;17847;31.524;74.366;2023-08-30T07:50:15;98096.38;;;35.66;nan
31225;BME280;17847;31.524;74.366;2023-08-30T07:52:45;98085.13;;;35.51;nan
31225;BME280;17847;31.524;74.366;2023-08-30T07:55:14;98080.03;;;35.53;nan
31225;BME280;17847;31.524;74.366;2023-08-30T07:57:44;98083.19;;;35.55;nan
31225;BME280;17847;31.524;74.366;2023-08-30T08:00:13;98077.38;;;35.60;nan
31225;BME280;17847;31.524;74.366;2023-08-30T08:02:45;98075.66;;;35.49;nan
31225;BME280;17847;31.524;74.366;2023-08-30T08:05:15;98067.31;;;35.45;nan
31225;BME280;17847;31.524;74.366;2023-08-30T08:07:45;98068.25;;;35.56;nan
31225;BME280;17847;31.524;74.366;2023-08-30T08:10:14;98065.16;;;35.58;nan
31225;BME280;17847;31.524;74.366;2023-08-30T08:12:44;98062.66;;;35.49;nan
31225;BME280;17847;31.524;74.366;2023-08-30T08:15:13;98062.31;;;35.54;nan
31225;BME280;17847;31.524;74.366;2023-08-30T08:17:42;98059.66;;;35.32;nan
31225;BME280;17847;31.524;74.366;2023-08-30T08:20:11;98053.66;;;35.26;nan
31225;BME280;17847;31.524;74.366;2023-08-30T08:22:42;98056.50;;;35.33;nan
31225;BME280;17847;31.524;74.366;2023-08-30T08:25:12;98051.75;;;35.30;nan
31225;BME280;17847;31.524;74.366;2023-08-30T08:27:41;98055.75;;;35.36;nan
31225;BME280;17847;31.524;74.366;2023-08-30T08:30:11;98043.50;;;35.30;nan
31225;BME280;17847;31.524;74.366;2023-08-30T08:32:40;98049.38;;;35.29;nan
31225;BME280;17847;31.524;74.366;2023-08-30T08:35:09;98046.34;;;35.37;nan
31225;BME280;17847;31.524;74.366;2023-08-30T08:37:39;98038.78;;;35.31;nan
31225;BME280;17847;31.524;74.366;2023-08-30T08:40:09;98025.69;;;35.24;nan
31225;BME280;17847;31.524;74.366;2023-08-30T08:42:42;98020.19;;;35.01;nan
31225;BME280;17847;31.524;74.366;2023-08-30T08:45:12;98023.13;;;35.12;nan
31225;BME280;17847;31.524;74.366;2023-08-30T08:47:45;98015.06;;;35.23;nan
31225;BME280;17847;31.524;74.366;2023-08-30T08:50:15;98020.94;;;35.21;nan
31225;BME280;17847;31.524;74.366;2023-08-30T08:52:45;98014.50;;;35.13;nan
31225;BME280;17847;31.524;74.366;2023-08-30T08:55:26;98012.78;;;35.05;nan
31225;BME280;17847;31.524;74.366;2023-08-30T08:57:59;98011.25;;;35.08;nan
31225;BME280;17847;31.524;74.366;2023-08-30T09:00:30;98002.03;;;34.97;nan
31225;BME280;17847;31.524;74.366;2023-08-30T09:03:01;98005.63;;;35.01;nan
31225;BME280;17847;31.524;74.366;2023-08-30T09:05:31;97995.84;;;35.03;nan
31225;BME280;17847;31.524;74.366;2023-08-30T09:08:05;97996.25;;;35.05;nan
31225;BME280;17847;31.524;74.366;2023-08-30T09:10:40;97997.50;;;35.08;nan
31225;BME280;17847;31.524;74.366;2023-08-30T09:13:09;97994.31;;;35.06;nan
31225;BME280;17847;31.524;74.366;2023-08-30T09:15:39;97984.88;;;35.07;nan
31225;BME280;17847;31.524;74.366;2023-08-30T09:18:18;97990.72;;;35.02;nan
31225;BME280;17847;31.524;74.366;2023-08-30T09:20:48;97986.06;;;35.06;nan
31225;BME280;17847;31.524;74.366;2023-08-30T09:23:20;97982.63;;;35.12;nan
31225;BME280;17847;31.524;74.366;2023-08-30T09:25:58;97982.03;;;35.00;nan
31225;BME280;17847;31.524;74.366;2023-08-30T09:28:29;97980.97;;;35.08;nan
31225;BME280;17847;31.524;74.366;2023-08-30T09:30:59;97978.09;;;35.01;nan
31225;BME280;17847;31.524;74.366;2023-08-30T09:33:40;97971.66;;;34.90;nan
31225;BME280;17847;31.524;74.366;2023-08-30T09:36:12;97963.22;;;34.79;nan
31225;BME280;17847;31.524;74.366;2023-08-30T09:38:48;97964.56;;;34.89;nan
31225;BME280;17847;31.524;74.366;2023-08-30T09:41:18;97965.00;;;34.91;nan
31225;BME280;17847;31.524;74.366;2023-08-30T09:43:47;97958.16;;;34.81;nan
31225;BME280;17847;31.524;74.366;2023-08-30T09:46:25;97958.84;;;34.75;nan
31225;BME280;17847;31.524;74.366;2023-08-30T09:49:12;97958.38;;;34.69;nan
31225;BME280;17847;31.524;74.366;2023-08-30T09:51:42;97947.41;;;34.72;nan
31225;BME280;17847;31.524;74.366;2023-08-30T09:54:17;97946.84;;;34.63;nan
31225;BME280;17847;31.524;74.366;2023-08-30T09:57:04;97943.66;;;34.61;nan
31225;BME280;17847;31.524;74.366;2023-08-30T09:59:35;97934.19;;;34.59;nan
31225;BME280;17847;31.524;74.366;2023-08-30T10:02:08;97928.25;;;34.57;nan
31225;BME280;17847;31.524;74.366;2023-08-30T10:04:39;97933.44;;;34.62;nan
31225;BME280;17847;31.524;74.366;2023-08-30T10:07:09;97938.16;;;34.61;nan
31225;BME280;17847;31.524;74.366;2023-08-30T10:09:40;97934.56;;;34.57;nan
31225;BME280;17847;31.524;74.366;2023-08-30T10:12:31;97934.47;;;34.50;nan
31225;BME280;17847;31.524;74.366;2023-08-30T10:15:06;97932.38;;;34.44;nan
31225;BME280;17847;31.524;74.366;2023-08-30T10:17:37;97936.31;;;34.43;nan
31225;BME280;17847;31.524;74.366;2023-08-30T10:20:08;97929.88;;;34.35;nan
31225;BME280;17847;31.524;74.366;2023-08-30T10:22:39;97922.38;;;34.32;nan
31225;BME280;17847;31.524;74.366;2023-08-30T10:25:15;97922.72;;;34.31;nan
31225;BME280;17847;31.524;74.366;2023-08-30T10:27:48;97925.47;;;34.31;nan
31225;BME280;17847;31.524;74.366;2023-08-30T10:30:20;97918.03;;;34.31;nan
31225;BME280;17847;31.524;74.366;2023-08-30T10:32:51;97913.69;;;34.30;nan
31225;BME280;17847;31.524;74.366;2023-08-30T10:35:20;97913.25;;;34.28;nan
31225;BME280;17847;31.524;74.366;2023-08-30T10:37:58;97907.75;;;34.28;nan
31225;BME280;17847;31.524;74.366;2023-08-30T10:40:28;97913.25;;;34.28;nan
31225;BME280;17847;31.524;74.366;2023-08-30T10:43:04;97906.06;;;34.20;nan
31225;BME280;17847;31.524;74.366;2023-08-30T10:45:34;97918.47;;;34.14;nan
31225;BME280;17847;31.524;74.366;2023-08-30T10:48:03;97917.28;;;34.11;nan
31225;BME280;17847;31.524;74.366;2023-08-30T10:50:34;97912.88;;;34.07;nan
31225;BME280;17847;31.524;74.366;2023-08-30T10:53:03;97912.94;;;34.10;nan
31225;BME280;17847;31.524;74.366;2023-08-30T10:55:46;97915.81;;;34.17;nan
31225;BME280;17847;31.524;74.366;2023-08-30T10:58:44;97922.16;;;34.21;nan
31225;BME280;17847;31.524;74.366;2023-08-30T11:01:14;97921.31;;;34.17;nan
31225;BME280;17847;31.524;74.366;2023-08-30T11:03:44;97913.00;;;34.14;nan
31225;BME280;17847;31.524;74.366;2023-08-30T11:06:14;97909.81;;;34.12;nan
31225;BME280;17847;31.524;74.366;2023-08-30T11:08:47;97912.50;;;34.08;nan
31225;BME280;17847;31.524;74.366;2023-08-30T11:11:18;97912.13;;;34.10;nan
31225;BME280;17847;31.524;74.366;2023-08-30T11:13:48;97918.44;;;34.10;nan
31225;BME280;17847;31.524;74.366;2023-08-30T11:16:21;97910.94;;;34.07;nan
31225;BME280;17847;31.524;74.366;2023-08-30T11:18:51;97912.03;;;34.03;nan
31225;BME280;17847;31.524;74.366;2023-08-30T11:21:20;97913.53;;;34.00;nan
31225;BME280;17847;31.524;74.366;2023-08-30T11:23:51;97909.19;;;33.99;nan
31225;BME280;17847;31.524;74.366;2023-08-30T11:26:21;97898.63;;;34.01;nan
31225;BME280;17847;31.524;74.366;2023-08-30T11:28:50;97905.66;;;33.99;nan
31225;BME280;17847;31.524;74.366;2023-08-30T11:31:22;97907.84;;;33.90;nan
31225;BME280;17847;31.524;74.366;2023-08-30T11:33:58;97905.75;;;33.83;nan
31225;BME280;17847;31.524;74.366;2023-08-30T11:36:30;97897.88;;;33.81;nan
31225;BME280;17847;31.524;74.366;2023-08-30T11:39:00;97895.50;;;33.80;nan
31225;BME280;17847;31.524;74.366;2023-08-30T11:41:31;97899.84;;;33.81;nan
31225;BME280;17847;31.524;74.366;2023-08-30T11:44:01;97898.66;;;33.82;nan
31225;BME280;17847;31.524;74.366;2023-08-30T11:46:32;97888.78;;;33.77;nan
31225;BME280;17847;31.524;74.366;2023-08-30T11:49:01;97898.59;;;33.78;nan
31225;BME280;17847;31.524;74.366;2023-08-30T11:51:32;97902.09;;;33.75;nan
31225;BME280;17847;31.524;74.366;2023-08-30T11:54:02;97899.34;;;33.75;nan
31225;BME280;17847;31.524;74.366;2023-08-30T11:56:35;97892.53;;;33.69;nan
31225;BME280;17847;31.524;74.366;2023-08-30T11:59:04;97901.06;;;33.64;nan
31225;BME280;17847;31.524;74.366;2023-08-30T12:01:34;97903.31;;;33.59;nan
31225;BME280;17847;31.524;74.366;2023-08-30T12:04:10;97901.72;;;33.58;nan
31225;BME280;17847;31.524;74.366;2023-08-30T12:06:40;97907.22;;;33.58;nan
31225;BME280;17847;31.524;74.366;2023-08-30T12:09:12;97899.31;;;33.56;nan
31225;BME280;17847;31.524;74.366;2023-08-30T12:11:42;97898.91;;;33.54;nan
31225;BME280;17847;31.524;74.366;2023-08-30T12:14:13;97894.84;;;33.48;nan
31225;BME280;17847;31.524;74.366;2023-08-30T12:16:43;97893.41;;;33.35;nan
31225;BME280;17847;31.524;74.366;2023-08-30T12:19:14;97897.59;;;33.29;nan
31225;BME280;17847;31.524;74.366;2023-08-30T12:21:44;97891.25;;;33.25;nan
31225;BME280;17847;31.524;74.366;2023-08-30T12:24:16;97893.13;;;33.21;nan
31225;BME280;17847;31.524;74.366;2023-08-30T12:26:45;97891.84;;;33.15;nan
31225;BME280;17847;31.524;74.366;2023-08-30T12:29:14;97893.66;;;33.11;nan
31225;BME280;17847;31.524;74.366;2023-08-30T12:31:44;97888.88;;;33.08;nan
31225;BME280;17847;31.524;74.366;2023-08-30T12:34:13;97895.09;;;33.05;nan
31225;BME280;17847;31.524;74.366;2023-08-30T12:36:42;97893.44;;;33.00;nan
31225;BME280;17847;31.524;74.366;2023-08-30T12:39:11;97893.38;;;32.96;nan
31225;BME280;17847;31.524;74.366;2023-08-30T12:41:41;97900.34;;;32.94;nan
31225;BME280;17847;31.524;74.366;2023-08-30T12:44:11;97901.81;;;32.88;nan
31225;BME280;17847;31.524;74.366;2023-08-30T12:46:41;97899.41;;;32.86;nan
31225;BME280;17847;31.524;74.366;2023-08-30T12:49:10;97904.44;;;32.84;nan
31225;BME280;17847;31.524;74.366;2023-08-30T12:51:42;97904.44;;;32.84;nan
31225;BME280;17847;31.524;74.366;2023-08-30T12:54:11;97899.06;;;32.72;nan
31225;BME280;17847;31.524;74.366;2023-08-30T12:56:43;97903.69;;;32.68;nan
31225;BME280;17847;31.524;74.366;2023-08-30T12:59:13;97901.84;;;32.57;nan
31225;BME280;17847;31.524;74.366;2023-08-30T13:01:42;97907.06;;;32.46;nan
31225;BME280;17847;31.524;74.366;2023-08-30T13:04:11;97908.38;;;32.36;nan
31225;BME280;17847;31.524;74.366;2023-08-30T13:06:41;97916.09;;;32.31;nan
31225;BME280;17847;31.524;74.366;2023-08-30T13:09:10;97914.41;;;32.26;nan
31225;BME280;17847;31.524;74.366;2023-08-30T13:11:39;97913.78;;;32.17;nan
31225;BME280;17847;31.524;74.366;2023-08-30T13:14:09;97912.44;;;32.11;nan
31225;BME280;17847;31.524;74.366;2023-08-30T13:16:38;97912.44;;;32.11;nan
31225;BME280;17847;31.524;74.366;2023-08-30T13:19:07;97911.31;;;32.12;nan
31225;BME280;17847;31.524;74.366;2023-08-30T13:21:37;97908.66;;;32.16;nan
31225;BME280;17847;31.524;74.366;2023-08-30T13:24:08;97911.06;;;32.17;nan
31225;BME280;17847;31.524;74.366;2023-08-30T13:26:41;97912.97;;;32.32;nan
31225;BME280;17847;31.524;74.366;2023-08-30T13:29:12;97906.88;;;32.39;nan
31225;BME280;17847;31.524;74.366;2023-08-30T13:31:41;97907.50;;;32.32;nan